Time;durP1;ratioP1;P1;durP2;ratioP2;P2;SDS_P1;SDS_P2;PMS_P1;PMS_P2;Temp;Humidity;BMP_temperature;BMP_pressure;BME280_temperature;BME280_humidity;BME280_pressure;Samples;Min_cycle;Max_cycle;Signal;HPM_P1;HPM_P2
2022/04/11 00:02:13;;;;;;;10.88;5.43;;;2.90;99.90;;;;;;5075132;28;20040;-48
2022/04/11 00:04:39;;;;;;;9.60;4.60;;;2.90;99.90;;;;;;5075625;28;20020;-49
2022/04/11 00:07:04;;;;;;;7.50;4.70;;;2.80;99.90;;;;;;5074965;28;20020;-51
2022/04/11 00:09:30;;;;;;;11.27;5.15;;;2.70;99.90;;;;;;5074912;28;20031;-48
2022/04/11 00:11:56;;;;;;;9.93;4.60;;;2.80;99.90;;;;;;5075145;28;20055;-48
2022/04/11 00:14:23;;;;;;;12.07;4.93;;;2.90;99.90;;;;;;5075680;28;20089;-48
2022/04/11 00:16:48;;;;;;;7.72;4.80;;;2.90;99.90;;;;;;5075647;28;20021;-51
2022/04/11 00:19:14;;;;;;;8.05;4.40;;;2.90;99.90;;;;;;5075445;28;20378;-47
2022/04/11 00:21:40;;;;;;;12.52;5.25;;;2.90;99.90;;;;;;5093121;28;20028;-52
2022/04/11 00:24:05;;;;;;;9.15;4.50;;;2.90;99.90;;;;;;5075079;28;20115;-56
2022/04/11 00:26:31;;;;;;;9.18;4.78;;;2.90;99.90;;;;;;5092880;28;20085;-56
2022/04/11 00:28:57;;;;;;;11.75;4.97;;;2.80;99.90;;;;;;5092891;28;20020;-55
2022/04/11 00:31:22;;;;;;;12.20;4.60;;;2.80;99.90;;;;;;5092879;28;20054;-53
2022/04/11 00:33:48;;;;;;;7.03;3.92;;;2.80;99.90;;;;;;5092972;28;20024;-51
2022/04/11 00:36:14;;;;;;;6.65;3.80;;;2.90;99.90;;;;;;5092855;28;20055;-57
2022/04/11 00:38:39;;;;;;;7.60;5.03;;;2.90;99.90;;;;;;5074845;28;20023;-55
2022/04/11 00:41:05;;;;;;;10.00;4.50;;;2.90;99.90;;;;;;5093108;28;20024;-52
2022/04/11 00:43:35;;;;;;;6.10;4.00;;;2.90;99.90;;;;;;5083853;28;20024;-57
2022/04/11 00:46:01;;;;;;;7.28;4.13;;;2.90;99.90;;;;;;5093023;28;20024;-55
2022/04/11 00:48:27;;;;;;;8.80;4.28;;;2.90;99.90;;;;;;5074566;28;20034;-54
2022/04/11 00:50:56;;;;;;;8.77;4.22;;;3.00;99.90;;;;;;5092642;28;20099;-55
2022/04/11 00:53:23;;;;;;;8.32;4.53;;;2.90;99.90;;;;;;5076997;28;20020;-54
2022/04/11 00:55:50;;;;;;;6.43;3.85;;;3.00;99.90;;;;;;5096190;28;20025;-55
2022/04/11 00:58:17;;;;;;;7.68;4.70;;;3.00;99.90;;;;;;5096621;28;20043;-57
2022/04/11 01:00:43;;;;;;;6.28;3.90;;;3.00;99.90;;;;;;5078649;28;20024;-58
2022/04/11 01:03:08;;;;;;;8.05;4.35;;;3.10;99.90;;;;;;5095122;28;20020;-55
2022/04/11 01:05:34;;;;;;;7.93;4.03;;;3.10;99.90;;;;;;5078355;28;20028;-56
2022/04/11 01:08:06;;;;;;;7.32;4.10;;;3.10;99.90;;;;;;5096417;28;20049;-55
2022/04/11 01:10:32;;;;;;;8.32;4.10;;;3.10;99.90;;;;;;5078298;28;20031;-57
2022/04/11 01:12:57;;;;;;;7.35;3.97;;;3.10;99.90;;;;;;5096311;28;20088;-57
2022/04/11 01:15:23;;;;;;;6.35;4.05;;;3.10;99.90;;;;;;5096428;28;20090;-55
2022/04/11 01:17:49;;;;;;;7.38;4.18;;;3.20;99.90;;;;;;5096366;28;20046;-56
2022/04/11 01:20:18;;;;;;;8.48;4.78;;;3.10;99.90;;;;;;5095394;28;20052;-58
2022/04/11 01:22:44;;;;;;;11.75;5.00;;;3.00;99.90;;;;;;5096301;28;20028;-55
2022/04/11 01:25:14;;;;;;;7.97;4.30;;;3.00;99.90;;;;;;5095002;28;20440;-54
2022/04/11 01:27:40;;;;;;;8.65;3.92;;;3.00;99.90;;;;;;5096100;28;20038;-56
2022/04/11 01:30:08;;;;;;;10.85;4.47;;;3.10;99.90;;;;;;5077748;28;20020;-56
2022/04/11 01:32:35;;;;;;;7.28;4.57;;;3.10;99.90;;;;;;5095895;28;20020;-57
2022/04/11 01:35:01;;;;;;;7.63;4.15;;;3.00;99.90;;;;;;5096201;28;20069;-56
2022/04/11 01:37:27;;;;;;;7.47;4.03;;;2.90;99.90;;;;;;5077943;28;20024;-58
2022/04/11 01:39:53;;;;;;;6.13;3.97;;;2.90;99.90;;;;;;5095931;28;20047;-54
2022/04/11 01:42:18;;;;;;;10.60;4.03;;;3.00;99.90;;;;;;5077807;28;20059;-54
2022/04/11 01:44:44;;;;;;;7.93;3.83;;;3.10;99.90;;;;;;5094461;28;20020;-51
2022/04/11 01:47:10;;;;;;;8.05;3.90;;;3.10;99.90;;;;;;5095632;28;20063;-53
2022/04/11 01:49:35;;;;;;;10.23;4.05;;;3.00;99.90;;;;;;5096099;28;20032;-55
2022/04/11 01:52:01;;;;;;;9.63;4.53;;;3.10;99.90;;;;;;5094199;28;20028;-56
2022/04/11 01:54:26;;;;;;;5.75;3.60;;;3.00;99.90;;;;;;5095463;28;20073;-56
2022/04/11 01:56:52;;;;;;;6.95;4.28;;;3.00;99.90;;;;;;5094113;28;20095;-56
2022/04/11 01:59:18;;;;;;;5.72;4.07;;;3.00;99.90;;;;;;5094232;28;20020;-55
2022/04/11 02:01:43;;;;;;;6.05;3.55;;;3.00;99.90;;;;;;5094541;28;20027;-52
2022/04/11 02:04:09;;;;;;;11.65;4.00;;;3.10;99.90;;;;;;5095180;28;20020;-57
2022/04/11 02:06:35;;;;;;;7.72;4.47;;;3.10;99.90;;;;;;5094885;28;20047;-54
2022/04/11 02:09:01;;;;;;;5.97;3.63;;;3.00;99.90;;;;;;5095171;28;20024;-54
2022/04/11 02:11:27;;;;;;;5.70;2.85;;;3.00;99.90;;;;;;5094005;28;20028;-57
2022/04/11 02:13:52;;;;;;;5.55;3.50;;;3.10;99.90;;;;;;5097031;28;20063;-52
2022/04/11 02:16:18;;;;;;;8.82;3.80;;;3.10;99.90;;;;;;5097566;28;20045;-51
2022/04/11 02:18:43;;;;;;;7.40;3.95;;;3.00;99.90;;;;;;5097158;28;20031;-56
2022/04/11 02:21:09;;;;;;;5.90;3.80;;;2.80;99.90;;;;;;5097101;28;20031;-53
2022/04/11 02:23:35;;;;;;;9.68;3.58;;;2.80;99.90;;;;;;5115622;28;20445;-55
2022/04/11 02:26:01;;;;;;;11.88;4.00;;;2.80;99.90;;;;;;5115610;28;20034;-56
2022/04/11 02:28:26;;;;;;;6.32;3.40;;;2.80;99.90;;;;;;5097100;28;20074;-56
2022/04/11 02:30:52;;;;;;;10.15;3.97;;;2.90;99.90;;;;;;5097975;28;20055;-52
2022/04/11 02:33:18;;;;;;;9.50;3.85;;;3.00;99.90;;;;;;5115149;28;20034;-53
2022/04/11 02:35:44;;;;;;;7.35;4.30;;;3.00;99.90;;;;;;5115132;28;20019;-54
2022/04/11 02:38:09;;;;;;;8.48;3.80;;;3.00;99.90;;;;;;5096818;28;20023;-50
2022/04/11 02:40:35;;;;;;;7.18;3.65;;;3.10;99.90;;;;;;5096848;28;20019;-54
2022/04/11 02:43:01;;;;;;;5.00;3.13;;;3.00;99.90;;;;;;5115311;28;20023;-55
2022/04/11 02:45:27;;;;;;;6.68;3.05;;;2.90;99.90;;;;;;5096569;28;20027;-57
2022/04/11 02:47:52;;;;;;;6.28;3.28;;;2.90;99.90;;;;;;5114848;28;20421;-54
2022/04/11 02:50:18;;;;;;;6.88;3.47;;;3.00;99.90;;;;;;5114834;28;20019;-55
2022/04/11 02:52:44;;;;;;;4.68;3.03;;;3.10;99.90;;;;;;5115135;28;20522;-55
2022/04/11 02:55:09;;;;;;;6.43;3.60;;;3.20;99.90;;;;;;5114782;28;20057;-55
2022/04/11 02:57:38;;;;;;;4.93;3.35;;;3.20;99.90;;;;;;5114741;28;20098;-53
2022/04/11 03:00:10;;;;;;;6.32;3.80;;;3.30;99.90;;;;;;5096349;28;20026;-56
2022/04/11 03:02:36;;;;;;;4.95;3.17;;;3.20;99.90;;;;;;5097411;28;20034;-54
2022/04/11 03:05:02;;;;;;;7.22;3.17;;;3.30;99.90;;;;;;5096220;28;20039;-51
2022/04/11 03:07:27;;;;;;;10.18;3.20;;;3.20;99.90;;;;;;5114573;28;20031;-55
2022/04/11 03:09:54;;;;;;;5.63;3.88;;;3.20;99.90;;;;;;5114440;28;20114;-53
2022/04/11 03:12:20;;;;;;;6.43;3.10;;;3.20;99.90;;;;;;5114487;28;20015;-56
2022/04/11 03:14:49;;;;;;;11.45;3.95;;;3.20;99.90;;;;;;5095431;28;20015;-55
2022/04/11 03:17:14;;;;;;;5.43;3.22;;;3.20;99.90;;;;;;5114268;28;20020;-53
2022/04/11 03:19:42;;;;;;;6.57;3.00;;;3.20;99.90;;;;;;5114208;28;20023;-52
2022/04/11 03:22:09;;;;;;;6.20;3.38;;;3.20;99.90;;;;;;5114225;28;20102;-51
2022/04/11 03:24:34;;;;;;;5.25;2.80;;;3.20;99.90;;;;;;5096715;28;20027;-52
2022/04/11 03:27:00;;;;;;;8.32;4.00;;;3.20;99.90;;;;;;5095846;28;20019;-53
2022/04/11 03:29:25;;;;;;;8.93;2.83;;;3.10;99.90;;;;;;5095876;28;20020;-53
2022/04/11 03:31:51;;;;;;;6.97;3.30;;;3.00;99.90;;;;;;5095806;28;20133;-56
2022/04/11 03:34:17;;;;;;;8.05;3.67;;;3.00;99.90;;;;;;5095796;28;20023;-57
2022/04/11 03:36:42;;;;;;;7.20;3.47;;;2.90;99.90;;;;;;5114195;28;20020;-53
2022/04/11 03:39:08;;;;;;;7.28;3.83;;;2.90;99.90;;;;;;5095722;28;20059;-54
2022/04/11 03:41:35;;;;;;;6.10;4.20;;;2.90;99.90;;;;;;5095575;28;20035;-56
2022/04/11 03:44:01;;;;;;;5.20;3.50;;;2.90;99.90;;;;;;5095426;28;20060;-54
2022/04/11 03:46:28;;;;;;;6.20;3.50;;;3.00;99.90;;;;;;5114142;28;20036;-52
2022/04/11 03:48:54;;;;;;;19.98;6.55;;;3.10;99.90;;;;;;5113799;28;20031;-53
2022/04/11 03:51:20;;;;;;;10.23;5.28;;;3.10;99.90;;;;;;5113564;28;20486;-55
2022/04/11 03:53:47;;;;;;;7.57;4.18;;;3.20;99.90;;;;;;5113538;28;20020;-57
2022/04/11 03:56:14;;;;;;;9.13;3.90;;;3.20;99.90;;;;;;5095403;28;20073;-52
2022/04/11 03:58:40;;;;;;;13.13;3.42;;;3.20;99.90;;;;;;5096498;28;20027;-54
2022/04/11 04:01:06;;;;;;;11.25;4.50;;;3.10;99.90;;;;;;5095476;28;20020;-56
2022/04/11 04:03:32;;;;;;;6.55;3.38;;;3.00;99.90;;;;;;5095285;28;20061;-52
2022/04/11 04:05:58;;;;;;;7.03;3.53;;;3.00;99.90;;;;;;5095036;28;20053;-52
2022/04/11 04:08:24;;;;;;;6.65;3.67;;;3.10;99.90;;;;;;5113496;28;20028;-55
2022/04/11 04:10:49;;;;;;;6.05;3.58;;;3.10;99.90;;;;;;5113444;28;20061;-54
2022/04/11 04:13:16;;;;;;;5.43;3.42;;;3.10;99.90;;;;;;5076382;28;20111;-52
2022/04/11 04:15:43;;;;;;;7.10;3.45;;;3.10;99.90;;;;;;5092990;28;20054;-52
2022/04/11 04:18:10;;;;;;;9.85;4.15;;;3.00;99.90;;;;;;5074817;28;20115;-54
2022/04/11 04:20:36;;;;;;;6.30;3.63;;;3.00;99.90;;;;;;5074872;28;20111;-56
2022/04/11 04:23:02;;;;;;;8.00;3.42;;;3.00;99.90;;;;;;5074693;28;20438;-52
2022/04/11 04:25:27;;;;;;;8.10;3.17;;;3.00;99.90;;;;;;5093189;28;20028;-57
2022/04/11 04:27:53;;;;;;;8.10;3.58;;;3.00;99.90;;;;;;5078333;28;20024;-55
2022/04/11 04:30:19;;;;;;;7.32;4.00;;;2.90;99.90;;;;;;5097126;28;20024;-54
2022/04/11 04:32:44;;;;;;;11.02;4.90;;;3.00;99.90;;;;;;5097650;28;20016;-52
2022/04/11 04:35:12;;;;;;;10.38;4.82;;;2.90;99.90;;;;;;5079532;28;20054;-52
2022/04/11 04:37:37;;;;;;;11.07;5.10;;;3.00;99.90;;;;;;5097382;28;20119;-53
2022/04/11 04:40:04;;;;;;;8.60;4.63;;;3.00;99.90;;;;;;5097335;28;20048;-55
2022/04/11 04:42:29;;;;;;;7.13;4.45;;;3.00;99.90;;;;;;5079252;28;20024;-56
2022/04/11 04:44:55;;;;;;;7.20;3.92;;;3.00;99.90;;;;;;5079192;28;20027;-57
2022/04/11 04:47:21;;;;;;;7.22;4.25;;;3.00;99.90;;;;;;5097240;28;20043;-51
2022/04/11 04:49:47;;;;;;;10.55;4.88;;;2.90;99.90;;;;;;5097460;28;20016;-53
2022/04/11 04:52:13;;;;;;;9.85;4.55;;;2.90;99.90;;;;;;5078868;28;20024;-53
2022/04/11 04:54:39;;;;;;;8.93;4.68;;;2.90;99.90;;;;;;5097262;28;20016;-57
2022/04/11 04:57:05;;;;;;;13.27;4.85;;;2.80;99.90;;;;;;5097093;28;20076;-52
2022/04/11 04:59:31;;;;;;;6.28;4.15;;;2.80;99.90;;;;;;5078505;28;20024;-54
2022/04/11 05:01:57;;;;;;;6.13;4.38;;;2.80;99.90;;;;;;5097039;28;20157;-54
2022/04/11 05:04:22;;;;;;;9.38;4.90;;;2.90;99.90;;;;;;5097487;28;20024;-53
2022/04/11 05:06:49;;;;;;;11.05;5.85;;;2.90;99.90;;;;;;5096872;28;20030;-54
2022/04/11 05:09:14;;;;;;;14.60;5.15;;;2.90;99.90;;;;;;5095787;28;20055;-55
2022/04/11 05:11:40;;;;;;;7.43;4.45;;;3.10;99.90;;;;;;5094631;28;20028;-56
2022/04/11 05:14:06;;;;;;;10.80;4.25;;;3.10;99.90;;;;;;5117099;28;20019;-56
2022/04/11 05:16:32;;;;;;;11.88;3.90;;;3.20;99.90;;;;;;5099691;28;20366;-51
2022/04/11 05:18:57;;;;;;;5.97;4.35;;;3.30;99.90;;;;;;5117009;28;20024;-51
2022/04/11 05:21:23;;;;;;;13.23;4.50;;;3.40;99.90;;;;;;5098659;28;20147;-54
2022/04/11 05:23:48;;;;;;;6.20;4.25;;;3.50;99.90;;;;;;5098541;28;20024;-52
2022/04/11 05:26:14;;;;;;;4.72;3.60;;;3.40;99.90;;;;;;5116858;28;20078;-53
2022/04/11 05:28:40;;;;;;;5.22;3.67;;;3.50;99.90;;;;;;5098533;28;20435;-57
2022/04/11 05:31:05;;;;;;;6.28;4.07;;;3.50;99.90;;;;;;5098383;28;20066;-53
2022/04/11 05:33:31;;;;;;;9.00;4.72;;;3.80;99.90;;;;;;5098391;28;20015;-56
2022/04/11 05:35:57;;;;;;;8.38;4.82;;;3.90;99.90;;;;;;5098438;28;20032;-54
2022/04/11 05:38:23;;;;;;;6.75;4.93;;;4.10;99.90;;;;;;5116079;28;20051;-51
2022/04/11 05:40:49;;;;;;;13.13;4.55;;;4.30;99.90;;;;;;5116921;28;20055;-53
2022/04/11 05:43:15;;;;;;;6.80;3.92;;;4.60;99.90;;;;;;5116410;28;20489;-54
2022/04/11 05:45:43;;;;;;;7.35;3.83;;;4.80;99.90;;;;;;5116560;28;20036;-54
2022/04/11 05:48:10;;;;;;;7.30;3.95;;;5.40;99.90;;;;;;5098453;28;20080;-52
2022/04/11 05:50:36;;;;;;;8.38;4.25;;;5.90;99.90;;;;;;5099108;28;20027;-54
2022/04/11 05:53:02;;;;;;;10.40;4.97;;;6.50;99.90;;;;;;5098129;28;20026;-56
2022/04/11 05:55:28;;;;;;;6.30;3.75;;;7.10;99.90;;;;;;5098034;28;20104;-57
2022/04/11 05:57:54;;;;;;;9.63;3.65;;;7.40;99.90;;;;;;5116955;28;20016;-54
2022/04/11 06:00:20;;;;;;;6.50;4.07;;;7.90;99.90;;;;;;5098255;28;20038;-54
2022/04/11 06:02:46;;;;;;;8.80;3.25;;;8.30;99.90;;;;;;5116580;28;20031;-53
2022/04/11 06:05:12;;;;;;;5.85;3.95;;;8.90;99.90;;;;;;5116169;28;20027;-53
2022/04/11 06:07:39;;;;;;;11.77;4.05;;;9.40;99.90;;;;;;5097849;28;20027;-53
2022/04/11 06:10:05;;;;;;;4.93;3.70;;;9.90;99.90;;;;;;5098032;28;20031;-54
2022/04/11 06:12:31;;;;;;;7.60;3.60;;;10.40;99.90;;;;;;5098046;28;20024;-51
2022/04/11 06:14:58;;;;;;;6.00;4.03;;;10.70;99.90;;;;;;5097879;28;20126;-51
2022/04/11 06:17:24;;;;;;;7.10;4.20;;;11.40;99.90;;;;;;5116226;28;20465;-53
2022/04/11 06:19:51;;;;;;;7.78;4.50;;;11.70;99.90;;;;;;5115929;28;20020;-55
2022/04/11 06:22:17;;;;;;;6.65;3.63;;;12.00;99.90;;;;;;5115868;28;20085;-57
2022/04/11 06:24:46;;;;;;;5.05;3.28;;;12.20;99.90;;;;;;5115811;28;20474;-53
2022/04/11 06:27:12;;;;;;;9.65;3.33;;;13.00;99.90;;;;;;5097727;28;20024;-53
2022/04/11 06:29:39;;;;;;;7.05;4.18;;;13.70;99.90;;;;;;5097381;28;20027;-52
2022/04/11 06:32:05;;;;;;;7.88;3.92;;;14.20;99.90;;;;;;5097209;28;20023;-52
2022/04/11 06:34:35;;;;;;;9.27;4.95;;;14.70;99.90;;;;;;5097296;28;20023;-52
2022/04/11 06:37:02;;;;;;;5.78;4.00;;;15.10;98.90;;;;;;5096585;28;20016;-56
2022/04/11 06:39:28;;;;;;;7.63;4.60;;;15.50;97.20;;;;;;5093692;28;20024;-53
2022/04/11 06:41:53;;;;;;;7.10;4.13;;;15.10;96.60;;;;;;5095156;28;20024;-55
2022/04/11 06:44:19;;;;;;;5.10;3.80;;;15.80;95.60;;;;;;5076856;28;20035;-56
2022/04/11 06:46:45;;;;;;;7.72;4.15;;;16.00;95.30;;;;;;5095077;28;20035;-53
2022/04/11 06:49:11;;;;;;;8.20;4.93;;;16.90;94.10;;;;;;5077134;28;20028;-52
2022/04/11 06:51:36;;;;;;;8.05;4.93;;;17.10;91.50;;;;;;5076188;28;20401;-52
2022/04/11 06:54:02;;;;;;;7.45;4.30;;;17.50;91.10;;;;;;5095127;28;20052;-57
2022/04/11 06:56:28;;;;;;;8.32;4.47;;;18.00;89.20;;;;;;5094975;28;20024;-51
2022/04/11 06:58:53;;;;;;;11.27;4.57;;;18.40;87.20;;;;;;5077774;28;20024;-51
2022/04/11 07:01:19;;;;;;;10.68;4.70;;;18.80;85.50;;;;;;5076624;28;20088;-53
2022/04/11 07:03:44;;;;;;;7.85;3.88;;;19.40;82.20;;;;;;5094600;28;20019;-53
2022/04/11 07:06:10;;;;;;;6.57;4.20;;;19.90;82.80;;;;;;5076421;28;20053;-57
2022/04/11 07:08:36;;;;;;;9.40;4.88;;;21.00;77.50;;;;;;5100331;28;20053;-56
2022/04/11 07:11:04;;;;;;;9.98;4.88;;;21.30;72.30;;;;;;5096511;28;20031;-54
2022/04/11 07:13:30;;;;;;;5.45;4.20;;;20.60;72.40;;;;;;5114935;28;20107;-58
2022/04/11 07:15:56;;;;;;;5.50;3.63;;;20.80;72.70;;;;;;5097351;28;20111;-53
2022/04/11 07:18:25;;;;;;;8.40;3.97;;;21.00;71.90;;;;;;5096490;28;20054;-55
2022/04/11 07:20:51;;;;;;;6.30;3.90;;;21.40;71.00;;;;;;5096995;28;20049;-53
2022/04/11 07:23:18;;;;;;;4.78;3.67;;;20.50;72.60;;;;;;5096432;28;20402;-54
2022/04/11 07:25:44;;;;;;;5.97;4.15;;;20.60;71.60;;;;;;5096418;28;20027;-56
2022/04/11 07:28:10;;;;;;;5.95;4.63;;;21.40;71.80;;;;;;5096618;28;20435;-53
2022/04/11 07:30:36;;;;;;;4.15;3.70;;;22.90;67.60;;;;;;5114825;28;20016;-58
2022/04/11 07:33:01;;;;;;;9.00;5.00;;;23.40;66.80;;;;;;5114370;28;20019;-56
2022/04/11 07:35:27;;;;;;;6.22;4.55;;;23.60;63.70;;;;;;5096066;28;20027;-54
2022/04/11 07:37:53;;;;;;;7.85;4.60;;;23.40;64.30;;;;;;5095415;28;20043;-57
2022/04/11 07:40:19;;;;;;;5.35;4.07;;;23.60;61.00;;;;;;5096378;28;20050;-57
2022/04/11 07:42:44;;;;;;;5.60;3.70;;;24.40;62.40;;;;;;5094432;28;20381;-56
2022/04/11 07:45:10;;;;;;;6.03;4.00;;;25.10;60.50;;;;;;5096595;28;20023;-58
2022/04/11 07:47:36;;;;;;;9.80;4.43;;;25.70;59.30;;;;;;5098193;28;20032;-55
2022/04/11 07:50:03;;;;;;;8.73;3.92;;;25.50;58.00;;;;;;5093518;28;20074;-55
2022/04/11 07:52:28;;;;;;;6.30;3.70;;;25.70;59.90;;;;;;5075733;28;20024;-55
2022/04/11 07:54:54;;;;;;;9.40;3.67;;;26.40;58.80;;;;;;5075984;28;20054;-56
2022/04/11 07:57:19;;;;;;;3.88;3.15;;;25.70;58.30;;;;;;5076519;28;20069;-53
2022/04/11 07:59:45;;;;;;;6.75;3.55;;;25.20;57.70;;;;;;5075670;28;20038;-56
2022/04/11 08:02:11;;;;;;;7.35;3.78;;;23.40;58.80;;;;;;5076159;28;20020;-51
2022/04/11 08:04:37;;;;;;;7.53;3.75;;;21.70;61.00;;;;;;5087537;28;20019;-51
2022/04/11 08:07:47;;;;;;;7.63;3.83;;;20.90;62.40;;;;;;5096148;28;20032;-56
2022/04/11 08:10:13;;;;;;;6.25;3.38;;;20.10;64.50;;;;;;5113986;28;20035;-54
2022/04/11 08:12:41;;;;;;;5.55;3.53;;;20.40;65.70;;;;;;5096154;28;20040;-49
2022/04/11 08:15:07;;;;;;;6.85;3.00;;;20.80;66.50;;;;;;5095641;28;20069;-52
2022/04/11 08:17:33;;;;;;;5.25;2.97;;;22.40;64.50;;;;;;5113793;28;20023;-58
2022/04/11 08:26:43;;;;;;;4.53;2.88;;;23.70;59.10;;;;;;5093373;28;20485;-58
2022/04/11 08:29:08;;;;;;;4.30;3.33;;;23.40;58.80;;;;;;5086759;28;20015;-56
2022/04/11 08:31:34;;;;;;;9.07;4.25;;;22.10;59.30;;;;;;5087378;28;20101;-56
2022/04/11 08:33:59;;;;;;;5.57;3.28;;;22.50;62.50;;;;;;5082976;28;20062;-58
2022/04/11 08:36:25;;;;;;;5.45;2.53;;;22.90;59.00;;;;;;5108980;28;20056;-57
2022/04/11 08:38:52;;;;;;;6.18;3.20;;;24.20;62.80;;;;;;5093164;28;20024;-59
2022/04/11 08:41:18;;;;;;;6.13;3.05;;;24.90;59.20;;;;;;5086104;28;20027;-59
2022/04/11 08:43:44;;;;;;;5.93;3.10;;;26.30;59.60;;;;;;5095576;28;20032;-58
2022/04/11 08:46:12;;;;;;;7.40;3.30;;;26.50;55.60;;;;;;5083719;28;20043;-60
2022/04/11 08:48:47;;;;;;;5.72;3.28;;;26.20;56.30;;;;;;5093071;28;20059;-56
2022/04/11 08:51:14;;;;;;;3.50;3.20;;;25.30;53.60;;;;;;5075023;28;20031;-59
2022/04/11 08:53:42;;;;;;;6.88;3.08;;;24.40;54.90;;;;;;5092065;28;20028;-56
2022/04/11 08:56:07;;;;;;;4.80;3.00;;;23.70;55.90;;;;;;5074971;28;20028;-53
2022/04/11 08:58:33;;;;;;;4.45;3.00;;;23.50;56.70;;;;;;5099603;28;20027;-54
2022/04/11 09:01:00;;;;;;;5.13;3.20;;;23.50;55.90;;;;;;5086733;28;20019;-57
2022/04/11 09:03:25;;;;;;;4.57;3.10;;;23.00;56.20;;;;;;5094003;28;20030;-55
2022/04/11 09:06:18;;;;;;;4.13;3.13;;;22.30;55.50;;;;;;5092799;28;20084;-57
2022/04/11 09:08:50;;;;;;;3.65;2.75;;;20.30;58.30;;;;;;5085970;28;20126;-55
2022/04/11 09:11:34;;;;;;;6.95;2.78;;;20.30;59.10;;;;;;5077098;28;20040;-53
2022/04/11 09:14:01;;;;;;;5.35;2.40;;;20.50;59.80;;;;;;5094667;28;20073;-56
2022/04/11 09:16:28;;;;;;;6.05;3.08;;;21.50;59.60;;;;;;5078731;28;20024;-56
2022/04/11 09:19:05;;;;;;;6.35;3.15;;;22.70;56.60;;;;;;5113162;28;20023;-57
2022/04/11 09:21:44;;;;;;;4.65;3.00;;;24.50;55.40;;;;;;5098701;28;20415;-58
2022/04/11 09:24:19;;;;;;;6.00;3.15;;;24.20;54.30;;;;;;5098550;28;20098;-58
2022/04/11 09:26:45;;;;;;;3.75;2.40;;;23.70;54.90;;;;;;5098929;28;20031;-56
2022/04/11 09:29:12;;;;;;;6.70;2.47;;;23.60;58.60;;;;;;5097714;28;20043;-57
2022/04/11 09:31:38;;;;;;;4.60;2.75;;;25.50;54.50;;;;;;5116682;28;20028;-55
2022/04/11 09:34:52;;;;;;;5.95;3.15;;;26.60;53.60;;;;;;5089721;28;20043;-59
2022/04/11 09:37:18;;;;;;;5.72;3.33;;;25.80;52.10;;;;;;5096227;28;20031;-58
2022/04/11 09:39:55;;;;;;;9.02;3.38;;;26.30;52.30;;;;;;5077912;28;20420;-57
2022/04/11 09:42:58;;;;;;;5.43;3.10;;;25.00;53.40;;;;;;5077933;28;20031;-57
2022/04/11 09:45:23;;;;;;;6.68;2.90;;;26.40;54.40;;;;;;5096156;28;20478;-58
2022/04/11 09:47:59;;;;;;;6.60;3.10;;;27.80;50.80;;;;;;5077832;28;20027;-57
2022/04/11 09:50:28;;;;;;;6.13;2.22;;;27.80;49.80;;;;;;5078192;28;20036;-55
2022/04/11 09:53:05;;;;;;;4.20;2.67;;;27.00;51.10;;;;;;5078165;28;20028;-58
2022/04/11 09:55:31;;;;;;;3.83;2.80;;;26.20;51.70;;;;;;5078059;28;20024;-55
2022/04/11 10:01:20;;;;;;;3.30;2.42;;;25.70;50.80;;;;;;5096139;28;20027;-51
2022/04/11 10:03:46;;;;;;;3.13;2.60;;;25.70;50.60;;;;;;5077555;28;20505;-52
2022/04/11 10:06:12;;;;;;;4.25;2.70;;;26.50;51.30;;;;;;5095664;28;20046;-56
2022/04/11 10:08:38;;;;;;;4.65;2.60;;;26.40;51.80;;;;;;5095613;28;20048;-53
2022/04/11 10:11:07;;;;;;;5.20;2.58;;;26.80;50.80;;;;;;5095477;28;20575;-58
2022/04/11 10:13:34;;;;;;;7.93;2.80;;;26.20;50.10;;;;;;5077698;28;20024;-53
2022/04/11 10:16:00;;;;;;;9.88;3.92;;;25.70;50.90;;;;;;5077320;28;20020;-55
2022/04/11 10:18:28;;;;;;;4.60;2.45;;;25.80;50.70;;;;;;5077601;28;20027;-55
2022/04/11 10:20:59;;;;;;;6.93;4.45;;;24.80;52.60;;;;;;5077245;28;20119;-56
2022/04/11 10:23:28;;;;;;;4.53;2.60;;;24.70;51.10;;;;;;5077131;28;20035;-58
2022/04/11 10:25:56;;;;;;;4.70;2.45;;;23.40;51.10;;;;;;5076969;28;20085;-53
2022/04/11 10:28:30;;;;;;;6.70;2.50;;;22.20;52.90;;;;;;5095023;28;20047;-56
2022/04/11 10:31:06;;;;;;;5.80;2.80;;;19.90;54.60;;;;;;5095352;28;20029;-50
2022/04/11 10:33:41;;;;;;;7.07;3.00;;;19.20;58.30;;;;;;5087695;28;20012;-55
2022/04/11 10:36:28;;;;;;;3.90;2.67;;;19.40;58.10;;;;;;5111865;28;20026;-52
2022/04/11 10:39:12;;;;;;;7.10;2.58;;;19.50;57.10;;;;;;5094472;28;20062;-50
2022/04/11 10:41:56;;;;;;;4.78;2.47;;;19.80;56.80;;;;;;5097481;28;20028;-53
2022/04/11 10:44:42;;;;;;;4.20;2.55;;;19.20;57.20;;;;;;5092308;28;20064;-53
2022/04/11 10:47:07;;;;;;;4.25;2.05;;;18.00;57.40;;;;;;5096749;28;20032;-58
2022/04/11 10:53:08;;;;;;;5.13;2.38;;;17.20;59.10;;;;;;5095985;28;20150;-51
2022/04/11 10:55:35;;;;;;;4.80;2.30;;;16.40;59.90;;;;;;5076618;28;20020;-55
2022/04/11 10:58:01;;;;;;;3.83;2.55;;;15.40;63.00;;;;;;5107410;28;20063;-51
2022/04/11 11:00:28;;;;;;;5.55;2.17;;;15.10;63.80;;;;;;5088619;28;20034;-52
2022/04/11 11:02:54;;;;;;;4.70;2.65;;;15.00;64.10;;;;;;5094719;28;20030;-51
2022/04/11 11:05:44;;;;;;;3.78;2.17;;;15.00;66.10;;;;;;5093405;28;20026;-50
2022/04/11 11:08:16;;;;;;;4.25;2.28;;;15.00;64.50;;;;;;5104944;28;20054;-50
2022/04/11 11:11:17;;;;;;;4.25;2.25;;;14.90;64.80;;;;;;5114848;28;20023;-58
2022/04/11 11:13:43;;;;;;;4.95;2.33;;;15.00;66.10;;;;;;5114640;28;20024;-54
2022/04/11 11:16:11;;;;;;;3.88;2.55;;;14.50;65.20;;;;;;5093020;28;20023;-53
2022/04/11 11:18:55;;;;;;;3.45;1.98;;;14.50;66.70;;;;;;5094178;28;20504;-54
2022/04/11 11:21:44;;;;;;;5.13;2.08;;;14.80;63.30;;;;;;5094289;28;20024;-56
2022/04/11 11:24:10;;;;;;;4.28;2.70;;;14.50;65.00;;;;;;5076633;28;20020;-50
2022/04/11 11:26:57;;;;;;;3.92;2.78;;;14.90;64.30;;;;;;5076005;28;20081;-58
2022/04/11 11:29:39;;;;;;;5.60;2.40;;;14.40;65.30;;;;;;5075945;28;20024;-54
2022/04/11 11:32:07;;;;;;;2.78;2.17;;;14.10;65.70;;;;;;5094146;28;20028;-52
2022/04/11 11:34:36;;;;;;;4.10;2.15;;;14.20;66.90;;;;;;5093784;28;20027;-51
2022/04/11 11:37:13;;;;;;;2.95;1.90;;;14.70;66.80;;;;;;5075689;28;20051;-55
2022/04/11 11:39:42;;;;;;;7.32;2.80;;;15.30;68.70;;;;;;5075790;28;20039;-51
2022/04/11 11:42:10;;;;;;;6.50;1.90;;;14.80;63.30;;;;;;5075790;28;20090;-50
2022/04/11 11:44:44;;;;;;;2.47;1.63;;;14.70;63.50;;;;;;5075573;28;20024;-54
2022/04/11 11:47:09;;;;;;;4.32;1.45;;;14.60;63.70;;;;;;5075961;28;20030;-54
2022/04/11 11:49:45;;;;;;;4.03;1.80;;;15.10;67.00;;;;;;5075701;28;20107;-51
2022/04/11 11:52:15;;;;;;;2.05;1.80;;;15.00;61.80;;;;;;5094018;28;20099;-51
2022/04/11 11:54:43;;;;;;;4.55;2.13;;;14.70;63.10;;;;;;5075531;28;20035;-50
2022/04/11 11:57:20;;;;;;;2.65;1.77;;;14.50;63.30;;;;;;5075451;28;20032;-50
2022/04/11 11:59:53;;;;;;;3.08;2.00;;;14.30;63.30;;;;;;5093580;28;20055;-50
2022/04/11 12:05:34;;;;;;;3.83;1.67;;;14.50;64.90;;;;;;5093814;28;20039;-49
2022/04/11 12:08:02;;;;;;;3.25;1.83;;;14.50;61.20;;;;;;5093616;28;20053;-51
2022/04/11 12:10:29;;;;;;;4.05;1.60;;;14.20;61.80;;;;;;5075292;28;20028;-49
2022/04/11 12:12:54;;;;;;;4.18;2.05;;;14.10;61.80;;;;;;5075600;28;20021;-53
2022/04/11 12:15:21;;;;;;;2.67;1.92;;;13.90;61.90;;;;;;5075551;28;20016;-52
2022/04/11 12:17:49;;;;;;;3.60;1.83;;;13.80;62.90;;;;;;5093594;28;20016;-55
2022/04/11 12:20:59;;;;;;;1.88;1.58;;;13.90;64.30;;;;;;5075497;28;20119;-49
2022/04/11 12:23:25;;;;;;;4.38;1.52;;;13.80;64.80;;;;;;5075790;28;20111;-56
2022/04/11 12:25:54;;;;;;;6.25;1.83;;;13.80;64.10;;;;;;5093254;28;20091;-50
2022/04/11 12:28:22;;;;;;;2.20;1.73;;;14.00;63.20;;;;;;5075542;28;20073;-48
2022/04/11 12:31:14;;;;;;;4.45;1.50;;;14.00;65.40;;;;;;5075077;28;20024;-49
2022/04/11 12:33:46;;;;;;;3.15;1.88;;;14.10;63.30;;;;;;5074960;28;20016;-50
2022/04/11 12:36:22;;;;;;;5.05;2.10;;;14.00;63.30;;;;;;5074946;28;20043;-52
2022/04/11 12:38:56;;;;;;;2.20;1.48;;;14.00;65.40;;;;;;5092939;28;20032;-50
2022/04/11 12:41:32;;;;;;;2.05;1.63;;;14.10;65.50;;;;;;5075384;28;20028;-51
2022/04/11 12:44:09;;;;;;;2.88;1.83;;;14.40;64.00;;;;;;5075007;28;20029;-48
2022/04/11 12:47:03;;;;;;;4.10;1.85;;;14.50;63.80;;;;;;5075397;28;20024;-49
2022/04/11 12:49:48;;;;;;;2.58;1.80;;;14.50;63.60;;;;;;5079385;28;20028;-49
2022/04/11 12:52:18;;;;;;;4.78;1.67;;;14.40;63.00;;;;;;5097152;28;20111;-52
2022/04/11 12:54:49;;;;;;;5.40;1.50;;;14.20;64.20;;;;;;5078783;28;20020;-53
2022/04/11 12:57:21;;;;;;;4.28;1.67;;;14.30;63.90;;;;;;5078855;28;20016;-48
2022/04/11 12:59:47;;;;;;;1.92;1.48;;;14.40;63.00;;;;;;5096903;28;20023;-52
2022/04/11 13:02:21;;;;;;;2.55;1.73;;;14.30;63.10;;;;;;5096950;28;20023;-48
2022/04/11 13:04:51;;;;;;;3.92;1.52;;;14.20;63.30;;;;;;5078611;28;20024;-51
2022/04/11 13:07:18;;;;;;;2.92;1.85;;;14.10;63.70;;;;;;5078811;28;20111;-49
2022/04/11 13:09:44;;;;;;;11.07;1.92;;;14.20;65.50;;;;;;5078794;28;20035;-50
2022/04/11 13:12:12;;;;;;;2.30;1.42;;;14.30;65.80;;;;;;5078760;28;20024;-48
2022/04/11 13:14:39;;;;;;;2.40;1.48;;;14.30;63.80;;;;;;5096574;28;20031;-53